Time;durP1;ratioP1;P1;durP2;ratioP2;P2;SDS_P1;SDS_P2;PMS_P1;PMS_P2;Temp;Humidity;BMP_temperature;BMP_pressure;BME280_temperature;BME280_humidity;BME280_pressure;Samples;Min_cycle;Max_cycle;Signal;HPM_P1;HPM_P2
2023/01/05 00:02:21;;;;;;;21.93;19.50;;;;;;;8.16;66.69;95732.53;4993408;28;20191;-67
2023/01/05 00:04:46;;;;;;;22.57;19.20;;;;;;;8.28;66.15;95738.59;4993142;28;20226;-66
2023/01/05 00:07:12;;;;;;;24.27;19.10;;;;;;;8.42;65.45;95734.91;5004079;28;20219;-66
2023/01/05 00:09:37;;;;;;;21.27;18.13;;;;;;;8.39;65.66;95743.84;5007146;28;20226;-66
2023/01/05 00:23:07;;;;;;;23.23;18.23;;;;;;;8.16;66.65;95727.31;5003212;28;20401;-66
2023/01/05 00:25:36;;;;;;;22.37;17.90;;;;;;;8.01;67.03;95720.63;5024863;28;20223;-67
2023/01/05 00:28:02;;;;;;;22.47;18.70;;;;;;;8.00;67.30;95722.41;5008614;28;20225;-67
2023/01/05 00:30:31;;;;;;;23.03;18.83;;;;;;;7.98;67.30;95718.25;5005468;28;20226;-67
2023/01/05 00:32:56;;;;;;;24.03;19.60;;;;;;;7.99;67.21;95719.91;5007710;28;20311;-67
2023/01/05 00:35:22;;;;;;;23.23;18.03;;;;;;;7.95;67.34;95717.53;5013785;28;20364;-68
2023/01/05 00:37:48;;;;;;;24.20;19.33;;;;;;;8.19;66.56;95721.81;4995917;28;20223;-68
2023/01/05 00:40:16;;;;;;;20.80;17.23;;;;;;;8.29;65.96;95714.91;4992105;28;20246;-68
2023/01/05 00:42:42;;;;;;;21.83;16.60;;;;;;;8.36;65.53;95702.97;4983585;28;20234;-68
2023/01/05 00:45:11;;;;;;;22.50;17.80;;;;;;;8.37;65.66;95716.94;5021503;28;20242;-68
2023/01/05 00:47:36;;;;;;;21.60;18.17;;;;;;;8.31;65.61;95705.16;5005219;28;20282;-68
2023/01/05 00:50:03;;;;;;;24.53;18.43;;;;;;;8.32;65.58;95704.19;5017461;28;20232;-68
2023/01/05 00:52:28;;;;;;;20.97;17.20;;;;;;;8.29;65.61;95707.03;5010564;28;20222;-68
2023/01/05 00:54:54;;;;;;;22.33;17.03;;;;;;;8.44;65.35;95712.06;5018498;28;20235;-67
2023/01/05 00:57:19;;;;;;;20.00;17.10;;;;;;;8.36;65.06;95710.81;5007312;28;20238;-68
2023/01/05 00:59:45;;;;;;;21.27;17.23;;;;;;;8.39;65.00;95715.88;5011795;28;20183;-67
2023/01/05 01:02:10;;;;;;;20.37;15.70;;;;;;;8.44;64.76;95714.66;5007062;28;20186;-68
2023/01/05 01:04:36;;;;;;;23.40;17.30;;;;;;;8.33;65.30;95710.25;5003654;28;20230;-68
2023/01/05 01:07:02;;;;;;;20.70;16.97;;;;;;;8.41;65.27;95715.75;5007749;28;20219;-68
2023/01/05 01:09:28;;;;;;;24.27;17.53;;;;;;;8.32;64.86;95706.78;5009383;28;20222;-68
2023/01/05 01:11:54;;;;;;;22.47;16.30;;;;;;;8.37;65.12;95709.06;5004045;28;20231;-68
2023/01/05 01:14:20;;;;;;;22.23;17.67;;;;;;;8.34;65.19;95715.38;5007306;28;20206;-68
2023/01/05 01:16:45;;;;;;;21.10;16.00;;;;;;;8.35;65.12;95701.31;5007032;28;20238;-68
2023/01/05 01:19:17;;;;;;;22.63;16.50;;;;;;;8.32;65.23;95706.78;4993728;28;20286;-68
2023/01/05 01:21:44;;;;;;;19.33;15.80;;;;;;;8.39;65.10;95707.16;4987974;28;20219;-67
2023/01/05 01:24:19;;;;;;;25.67;16.20;;;;;;;8.32;65.31;95704.19;4997777;28;20247;-68
2023/01/05 01:26:45;;;;;;;22.00;16.90;;;;;;;8.15;65.79;95699.41;4991952;28;20180;-65
2023/01/05 01:29:10;;;;;;;21.00;16.53;;;;;;;8.33;65.27;95697.16;5007672;28;20910;-65
2023/01/05 01:31:36;;;;;;;19.67;16.13;;;;;;;8.42;65.08;95690.38;5021328;28;20231;-65
2023/01/05 01:34:02;;;;;;;21.70;16.10;;;;;;;8.36;65.13;95679.38;5008097;28;20325;-66
2023/01/05 01:36:28;;;;;;;19.97;16.10;;;;;;;8.41;64.71;95678.22;5005289;28;20293;-66
2023/01/05 01:38:53;;;;;;;18.63;14.93;;;;;;;8.43;64.69;95678.94;5015883;28;20246;-66
2023/01/05 01:41:19;;;;;;;20.07;15.13;;;;;;;8.46;64.53;95678.69;5009768;28;20270;-66
2023/01/05 01:43:48;;;;;;;20.33;16.13;;;;;;;8.51;64.48;95666.88;5001066;28;20226;-65
2023/01/05 01:46:15;;;;;;;20.83;15.73;;;;;;;8.43;64.60;95657.97;4995173;28;20219;-65
2023/01/05 01:48:46;;;;;;;20.93;15.43;;;;;;;8.40;64.55;95651.19;4990479;28;20224;-65
2023/01/05 01:51:18;;;;;;;18.90;16.00;;;;;;;8.52;64.02;95649.38;4999831;28;20227;-65
2023/01/05 01:53:47;;;;;;;18.57;15.73;;;;;;;8.54;64.20;95650.09;5000465;28;20242;-65
2023/01/05 01:56:17;;;;;;;22.43;15.73;;;;;;;8.54;63.81;95647.47;5000742;28;20266;-66
2023/01/05 01:58:43;;;;;;;22.53;15.50;;;;;;;8.54;64.34;95643.03;4986477;28;20223;-65
2023/01/05 02:01:09;;;;;;;19.37;15.43;;;;;;;8.51;64.22;95640.69;4985133;28;20231;-65
2023/01/05 02:03:36;;;;;;;18.13;14.57;;;;;;;8.52;64.16;95639.72;4983534;28;20234;-66
2023/01/05 02:06:02;;;;;;;18.20;15.67;;;;;;;8.54;63.91;95629.13;4981779;28;20708;-65
2023/01/05 02:08:30;;;;;;;17.10;13.97;;;;;;;8.52;64.17;95629.22;4988530;28;20197;-65
2023/01/05 02:11:44;;;;;;;19.07;15.07;;;;;;;8.54;64.00;95626.50;5004104;28;20234;-65
2023/01/05 02:14:46;;;;;;;17.77;15.57;;;;;;;8.52;64.20;95623.16;4966635;28;20236;-65
2023/01/05 02:17:23;;;;;;;19.80;16.30;;;;;;;8.39;64.44;95616.31;4969622;28;20211;-65
2023/01/05 02:20:24;;;;;;;19.23;16.67;;;;;;;8.42;64.61;95611.75;4952639;28;20631;-65
2023/01/05 02:23:17;;;;;;;19.37;15.77;;;;;;;8.27;64.91;95609.38;4950526;28;20299;-65
2023/01/05 02:26:20;;;;;;;19.03;15.50;;;;;;;8.35;64.68;95609.59;4954338;28;20224;-65
2023/01/05 02:29:08;;;;;;;19.33;16.30;;;;;;;8.38;64.48;95606.72;4948449;28;20246;-65
2023/01/05 02:31:40;;;;;;;19.27;16.40;;;;;;;8.35;64.66;95600.91;4955605;28;20232;-64
2023/01/05 02:34:37;;;;;;;19.60;16.20;;;;;;;8.38;64.50;95606.72;4954891;28;20232;-64
2023/01/05 02:37:22;;;;;;;20.10;16.67;;;;;;;8.47;64.49;95604.34;4953954;28;20301;-64
2023/01/05 02:40:09;;;;;;;18.70;15.03;;;;;;;8.45;64.48;95606.28;4946156;28;20334;-64
2023/01/05 02:42:37;;;;;;;18.60;15.70;;;;;;;8.46;64.55;95607.94;4959606;28;20224;-64
2023/01/05 02:45:04;;;;;;;20.60;16.17;;;;;;;8.47;64.26;95610.41;4968495;28;20231;-64
2023/01/05 02:47:38;;;;;;;23.33;17.47;;;;;;;8.34;65.18;95604.47;4952994;28;20194;-64
2023/01/05 02:50:21;;;;;;;23.33;18.60;;;;;;;8.15;65.95;95602.50;4967681;28;20222;-64
2023/01/05 02:53:03;;;;;;;24.33;18.73;;;;;;;7.79;67.31;95606.25;5013038;28;20287;-64
2023/01/05 02:55:36;;;;;;;23.83;18.63;;;;;;;7.84;67.41;95597.09;5015781;28;20237;-64
2023/01/05 02:58:09;;;;;;;23.33;19.27;;;;;;;7.87;67.46;95596.84;5018928;28;20230;-64
2023/01/05 03:00:40;;;;;;;24.17;19.80;;;;;;;8.00;66.85;95588.03;5024400;28;20304;-65
2023/01/05 03:03:23;;;;;;;24.67;19.60;;;;;;;8.08;66.70;95577.75;5006962;28;20233;-65
2023/01/05 03:06:14;;;;;;;24.57;19.70;;;;;;;8.15;66.33;95584.16;4995391;28;20225;-65
2023/01/05 03:08:49;;;;;;;30.40;20.77;;;;;;;8.13;66.68;95575.63;4996579;28;20239;-65
2023/01/05 03:14:07;;;;;;;25.13;19.70;;;;;;;8.20;66.12;95568.06;5001913;28;20237;-65
2023/01/05 03:16:37;;;;;;;26.27;19.60;;;;;;;8.20;66.06;95561.03;5005729;28;20271;-65
2023/01/05 03:35:58;;;;;;;26.53;21.00;;;;;;;8.22;66.29;95535.56;5002206;28;20334;-65
2023/01/05 03:38:23;;;;;;;27.77;21.07;;;;;;;8.16;66.08;95534.28;5004903;28;20218;-65
2023/01/05 03:40:52;;;;;;;27.20;19.53;;;;;;;8.12;66.59;95535.47;5002779;28;20274;-65
2023/01/05 03:43:19;;;;;;;25.50;20.10;;;;;;;8.21;66.36;95522.59;5004794;28;20219;-65
2023/01/05 03:45:51;;;;;;;25.10;20.43;;;;;;;8.25;66.02;95527.44;5007336;28;20301;-65
2023/01/05 03:48:16;;;;;;;27.10;20.23;;;;;;;8.25;66.09;95527.44;4996874;28;20216;-64
2023/01/05 03:50:42;;;;;;;25.33;18.37;;;;;;;8.17;66.42;95529.88;5025828;28;20257;-65
2023/01/05 03:53:07;;;;;;;26.53;20.20;;;;;;;8.27;66.03;95525.53;5024553;28;20188;-65
2023/01/05 03:55:33;;;;;;;25.80;19.20;;;;;;;8.30;65.70;95530.53;5004264;28;20243;-65
2023/01/05 03:57:58;;;;;;;23.47;18.70;;;;;;;8.32;65.69;95526.00;5004397;28;20258;-65
2023/01/05 04:00:24;;;;;;;24.93;19.00;;;;;;;8.31;65.63;95529.59;4995677;28;20228;-65
2023/01/05 04:02:50;;;;;;;26.13;19.23;;;;;;;8.27;65.55;95519.47;5007676;28;20260;-65
2023/01/05 04:05:16;;;;;;;24.37;17.67;;;;;;;8.29;65.29;95518.41;5007669;28;20190;-65
2023/01/05 04:07:41;;;;;;;26.17;19.17;;;;;;;8.24;65.49;95525.81;4999157;28;20219;-65
2023/01/05 04:10:07;;;;;;;24.30;18.47;;;;;;;8.17;65.86;95517.59;5002946;28;20284;-65
2023/01/05 04:12:33;;;;;;;26.17;19.30;;;;;;;8.14;65.85;95515.22;4992350;28;20227;-65
2023/01/05 04:14:58;;;;;;;24.50;18.20;;;;;;;8.16;66.09;95517.72;5023260;28;20238;-64
2023/01/05 04:17:24;;;;;;;24.47;18.10;;;;;;;8.18;65.67;95511.41;5005716;28;20282;-64
2023/01/05 04:19:49;;;;;;;27.73;19.10;;;;;;;8.17;65.81;95507.13;5007473;28;20217;-64
2023/01/05 04:22:14;;;;;;;25.43;19.20;;;;;;;8.24;65.48;95510.06;5002253;28;20330;-64
2023/01/05 04:24:40;;;;;;;25.90;19.77;;;;;;;8.14;65.89;95503.91;4999453;28;20227;-64
2023/01/05 04:27:05;;;;;;;26.83;19.80;;;;;;;8.18;65.91;95506.19;5005696;28;20218;-64
2023/01/05 04:29:30;;;;;;;24.83;18.70;;;;;;;8.13;65.80;95497.03;5003756;28;20220;-64
2023/01/05 04:31:56;;;;;;;26.23;19.80;;;;;;;8.14;65.92;95499.50;5008892;28;20302;-64
2023/01/05 04:34:21;;;;;;;27.13;18.50;;;;;;;8.09;65.80;95495.59;5009994;28;20285;-64
2023/01/05 04:36:48;;;;;;;26.57;19.53;;;;;;;7.92;66.16;95503.03;5010778;28;20222;-64
2023/01/05 04:39:14;;;;;;;23.20;18.83;;;;;;;7.88;66.46;95504.22;5011718;28;20358;-64
2023/01/05 04:41:39;;;;;;;24.60;19.30;;;;;;;7.86;66.54;95506.16;4988807;28;20284;-65
2023/01/05 04:44:05;;;;;;;25.10;19.03;;;;;;;7.88;66.19;95509.47;5011956;28;20203;-64
2023/01/05 04:46:30;;;;;;;26.13;18.97;;;;;;;7.83;66.44;95506.41;5014576;28;20234;-64
2023/01/05 04:48:56;;;;;;;24.93;19.80;;;;;;;7.79;66.36;95502.38;5002816;28;20235;-64
2023/01/05 04:51:22;;;;;;;26.27;19.87;;;;;;;7.80;66.36;95506.63;5015974;28;20231;-65
2023/01/05 04:53:47;;;;;;;26.07;18.80;;;;;;;7.78;66.44;95511.19;5008434;28;20205;-64
2023/01/05 04:56:13;;;;;;;26.80;19.53;;;;;;;7.73;66.41;95510.72;5013088;28;20231;-65
2023/01/05 04:58:38;;;;;;;26.13;18.93;;;;;;;7.78;66.42;95523.41;5009605;28;20227;-64
2023/01/05 05:01:04;;;;;;;23.70;19.03;;;;;;;7.78;66.19;95524.28;5032587;28;20226;-64
2023/01/05 05:03:29;;;;;;;24.97;19.53;;;;;;;7.76;66.43;95515.69;4993425;28;20215;-64
2023/01/05 05:05:55;;;;;;;26.13;20.77;;;;;;;7.73;66.62;95526.41;5019374;28;20223;-64
2023/01/05 05:08:20;;;;;;;26.47;19.67;;;;;;;7.83;66.45;95527.34;5004344;28;20191;-64
2023/01/05 05:10:45;;;;;;;29.27;21.37;;;;;;;7.71;66.40;95528.31;5012879;28;20306;-64
2023/01/05 05:13:11;;;;;;;27.27;21.67;;;;;;;7.74;66.82;95525.44;5005949;28;20231;-64
2023/01/05 05:15:36;;;;;;;27.07;19.50;;;;;;;7.72;66.92;95520.34;5007685;28;20253;-64
2023/01/05 05:18:02;;;;;;;25.60;19.60;;;;;;;7.84;66.46;95529.00;5024906;28;20788;-64
2023/01/05 05:20:27;;;;;;;27.33;21.23;;;;;;;7.73;66.91;95539.50;5008487;28;20207;-65
2023/01/05 05:22:53;;;;;;;28.83;22.03;;;;;;;7.73;67.05;95534.28;5010017;28;20293;-64
2023/01/05 05:25:18;;;;;;;28.23;23.70;;;;;;;7.74;67.13;95536.75;5002037;28;20273;-64
2023/01/05 05:27:43;;;;;;;26.27;21.00;;;;;;;7.75;67.20;95532.34;5006530;28;20265;-63
2023/01/05 05:30:09;;;;;;;26.67;21.33;;;;;;;7.75;67.00;95527.09;5007887;28;20223;-64
2023/01/05 05:32:35;;;;;;;27.83;20.13;;;;;;;7.74;67.08;95533.31;5010391;28;20190;-63
2023/01/05 05:35:00;;;;;;;24.63;20.03;;;;;;;7.73;67.00;95532.47;5007259;28;20182;-63
2023/01/05 05:37:26;;;;;;;26.93;20.47;;;;;;;7.71;66.62;95523.09;5008815;28;20226;-63
2023/01/05 05:39:51;;;;;;;25.23;19.20;;;;;;;7.64;66.95;95522.72;5006283;28;20302;-63
2023/01/05 05:42:16;;;;;;;25.07;17.83;;;;;;;7.58;66.97;95506.69;5022209;28;20227;-64
2023/01/05 05:44:42;;;;;;;22.80;18.87;;;;;;;7.59;67.35;95509.19;5006547;28;20205;-64
2023/01/05 05:47:07;;;;;;;23.57;18.47;;;;;;;7.59;67.18;95509.19;5008709;28;20187;-64
2023/01/05 05:49:33;;;;;;;23.43;18.70;;;;;;;7.47;67.29;95495.28;5004642;28;20219;-65
2023/01/05 05:51:58;;;;;;;26.70;20.33;;;;;;;7.43;67.24;95488.63;5021752;28;20234;-64
2023/01/05 05:54:27;;;;;;;29.33;20.60;;;;;;;7.46;67.20;95487.56;5008887;28;20234;-64
2023/01/05 05:56:52;;;;;;;26.53;19.90;;;;;;;7.44;66.70;95486.84;5010436;28;20226;-64
2023/01/05 05:59:18;;;;;;;32.23;19.60;;;;;;;7.33;67.60;95492.09;5008158;28;20225;-64
2023/01/05 06:01:43;;;;;;;26.20;20.03;;;;;;;7.25;67.77;95488.28;4994996;28;20215;-64
2023/01/05 06:04:10;;;;;;;30.83;21.90;;;;;;;7.25;68.07;95485.69;5008632;28;20247;-64
2023/01/05 06:06:35;;;;;;;29.13;23.40;;;;;;;7.21;68.42;95486.84;5004465;28;20273;-64
2023/01/05 06:09:01;;;;;;;31.77;23.00;;;;;;;7.17;68.89;95474.16;5000956;28;20231;-65
2023/01/05 06:11:26;;;;;;;33.27;23.47;;;;;;;7.27;68.18;95482.91;4989722;28;20210;-65
2023/01/05 06:13:52;;;;;;;28.60;21.87;;;;;;;7.23;68.24;95471.06;5025647;28;20236;-64
2023/01/05 06:16:17;;;;;;;31.43;23.57;;;;;;;7.27;68.33;95473.31;5002971;28;20231;-64
2023/01/05 06:18:42;;;;;;;33.73;23.50;;;;;;;7.22;67.96;95472.00;5018187;28;20223;-64
2023/01/05 06:21:08;;;;;;;32.03;23.27;;;;;;;7.25;68.31;95471.78;5001072;28;20306;-65
2023/01/05 06:23:33;;;;;;;33.03;24.13;;;;;;;7.12;68.59;95473.69;5003586;28;20278;-67
2023/01/05 06:25:59;;;;;;;34.43;24.07;;;;;;;7.07;68.87;95471.41;5008215;28;20194;-68
2023/01/05 06:28:24;;;;;;;34.70;23.70;;;;;;;7.14;68.49;95464.75;5002969;28;20249;-67
2023/01/05 06:30:50;;;;;;;36.30;24.77;;;;;;;7.24;68.22;95468.31;4999580;28;20243;-67
2023/01/05 06:33:15;;;;;;;35.37;25.33;;;;;;;7.32;67.57;95462.47;4994173;28;20240;-67
2023/01/05 06:35:40;;;;;;;32.53;24.83;;;;;;;7.34;67.51;95454.50;5007604;28;20206;-67
2023/01/05 06:38:06;;;;;;;31.10;24.03;;;;;;;7.24;67.76;95457.00;5008200;28;20190;-67
2023/01/05 06:40:31;;;;;;;29.90;22.70;;;;;;;7.34;67.66;95457.94;4998212;28;20227;-67
2023/01/05 06:42:57;;;;;;;30.67;23.40;;;;;;;7.19;67.64;95469.63;5001606;28;20227;-65
2023/01/05 06:45:22;;;;;;;34.80;22.50;;;;;;;7.27;67.47;95457.63;4989723;28;20286;-66
2023/01/05 06:47:48;;;;;;;31.77;21.73;;;;;;;7.36;67.15;95456.06;4992024;28;20199;-68
2023/01/05 06:50:13;;;;;;;32.70;21.97;;;;;;;7.34;66.58;95452.72;5007059;28;20210;-67
2023/01/05 06:52:39;;;;;;;34.73;23.27;;;;;;;7.33;67.20;95460.72;5001003;28;20219;-68
2023/01/05 06:55:11;;;;;;;33.50;22.60;;;;;;;7.17;67.73;95466.31;5006802;28;20330;-68
2023/01/05 06:57:36;;;;;;;29.23;22.27;;;;;;;7.37;66.92;95457.72;5001759;28;20226;-68
2023/01/05 07:00:08;;;;;;;29.10;21.83;;;;;;;7.13;67.62;95464.88;5008953;28;20225;-68
2023/01/05 07:02:33;;;;;;;30.83;22.90;;;;;;;7.09;67.72;95464.28;5011136;28;20198;-68
2023/01/05 07:04:59;;;;;;;33.80;23.10;;;;;;;7.30;66.84;95461.78;5014497;28;20190;-68
2023/01/05 07:07:24;;;;;;;30.37;22.87;;;;;;;7.16;67.87;95456.78;5007070;28;20221;-67
2023/01/05 07:09:50;;;;;;;29.83;23.37;;;;;;;7.22;68.34;95458.94;5010353;28;20226;-67
2023/01/05 07:12:16;;;;;;;31.63;22.73;;;;;;;7.35;67.46;95462.25;5008528;28;20230;-66
2023/01/05 07:14:42;;;;;;;34.87;25.73;;;;;;;7.46;67.48;95459.59;5003279;28;20564;-66
2023/01/05 07:17:07;;;;;;;31.47;23.20;;;;;;;7.26;68.33;95462.97;5012046;28;20187;-66
2023/01/05 07:19:33;;;;;;;30.50;24.13;;;;;;;7.58;67.58;95456.97;5013993;28;20258;-65
2023/01/05 07:21:58;;;;;;;35.67;25.47;;;;;;;7.70;66.75;95458.59;5005336;28;20246;-64
2023/01/05 07:24:24;;;;;;;31.23;23.53;;;;;;;7.81;66.92;95453.34;5006102;28;20238;-63
2023/01/05 07:26:49;;;;;;;37.87;25.40;;;;;;;7.89;66.29;95444.88;5018851;28;20257;-63
2023/01/05 07:29:15;;;;;;;39.80;24.50;;;;;;;7.67;66.63;95445.75;5006963;28;20273;-67
2023/01/05 07:31:41;;;;;;;40.73;25.63;;;;;;;7.83;66.69;95448.81;5003002;28;20317;-66
2023/01/05 07:34:08;;;;;;;35.97;24.97;;;;;;;7.95;66.34;95453.03;5021974;28;20305;-68
2023/01/05 07:36:34;;;;;;;40.83;25.07;;;;;;;7.66;67.38;95438.84;5003275;28;20228;-68
2023/01/05 07:38:59;;;;;;;36.10;26.10;;;;;;;7.92;66.81;95437.56;5003475;28;20219;-68
2023/01/05 07:41:25;;;;;;;36.67;24.73;;;;;;;8.14;66.04;95430.56;4988160;28;20212;-65
2023/01/05 07:43:50;;;;;;;30.23;23.90;;;;;;;8.29;65.44;95424.06;5022509;28;20234;-64
2023/01/05 07:46:16;;;;;;;31.10;22.53;;;;;;;8.36;65.55;95427.81;5008239;28;20222;-64
2023/01/05 07:48:41;;;;;;;30.23;22.43;;;;;;;8.44;65.59;95421.97;4997051;28;20456;-67
2023/01/05 07:51:09;;;;;;;28.77;21.43;;;;;;;8.47;65.27;95432.19;5004523;28;20632;-67
2023/01/05 07:53:37;;;;;;;26.70;21.17;;;;;;;8.43;64.94;95424.75;5003076;28;20195;-66
2023/01/05 07:56:04;;;;;;;28.00;21.27;;;;;;;8.61;64.65;95423.19;4999391;28;20313;-66
2023/01/05 07:58:29;;;;;;;33.20;24.50;;;;;;;8.61;64.58;95415.34;5005439;28;20215;-64
2023/01/05 08:00:55;;;;;;;34.00;25.03;;;;;;;8.57;64.96;95422.59;5005254;28;20280;-67
2023/01/05 08:03:23;;;;;;;29.17;23.20;;;;;;;8.71;64.46;95424.06;5022297;28;20230;-66
2023/01/05 08:05:48;;;;;;;34.27;24.73;;;;;;;8.70;64.54;95413.72;5019729;28;20281;-67
2023/01/05 08:08:14;;;;;;;31.03;24.80;;;;;;;8.77;64.13;95427.97;5023149;28;20191;-65
2023/01/05 08:10:41;;;;;;;32.10;23.60;;;;;;;8.64;64.57;95412.44;5003464;28;20265;-67
2023/01/05 08:15:54;;;;;;;32.73;25.03;;;;;;;8.72;63.83;95407.38;5013513;28;20241;-67
2023/01/05 08:18:20;;;;;;;33.93;25.23;;;;;;;8.84;63.76;95406.31;5004042;28;20340;-68
2023/01/05 08:21:04;;;;;;;32.93;25.60;;;;;;;8.90;63.66;95407.63;5006579;28;20183;-66
2023/01/05 08:23:31;;;;;;;35.63;26.83;;;;;;;8.91;63.74;95400.56;5022790;28;20174;-69
2023/01/05 08:26:01;;;;;;;37.83;28.37;;;;;;;9.02;63.44;95408.34;5010907;28;20297;-67
2023/01/05 08:28:27;;;;;;;34.17;27.27;;;;;;;9.04;63.05;95414.28;5007482;28;20223;-68
2023/01/05 08:30:52;;;;;;;32.87;25.43;;;;;;;8.81;63.50;95413.63;5022442;28;20246;-67
2023/01/05 08:33:18;;;;;;;33.13;25.77;;;;;;;8.74;64.00;95412.47;4994967;28;20307;-67
2023/01/05 08:35:44;;;;;;;28.77;24.97;;;;;;;8.54;63.96;95407.16;5007457;28;20472;-66
2023/01/05 08:38:10;;;;;;;32.07;25.80;;;;;;;8.65;63.90;95414.09;5008286;28;20246;-65
2023/01/05 08:40:38;;;;;;;28.17;23.57;;;;;;;8.84;63.24;95419.44;5001403;28;20216;-68
2023/01/05 08:43:05;;;;;;;25.37;20.83;;;;;;;8.75;62.62;95404.50;4986792;28;20639;-68
2023/01/05 08:45:32;;;;;;;28.63;22.50;;;;;;;8.80;62.62;95404.13;4990502;28;20249;-67
2023/01/05 08:47:57;;;;;;;25.63;21.57;;;;;;;8.93;62.19;95398.66;5002560;28;20234;-65
2023/01/05 08:50:23;;;;;;;27.07;21.53;;;;;;;9.09;61.40;95396.34;4989543;28;20216;-65
2023/01/05 08:52:48;;;;;;;25.47;19.97;;;;;;;9.08;61.50;95391.22;5008112;28;20241;-65
2023/01/05 08:55:13;;;;;;;26.17;20.67;;;;;;;9.12;61.37;95396.09;5007294;28;20339;-68
2023/01/05 08:57:39;;;;;;;23.97;19.70;;;;;;;9.14;61.59;95382.81;5005354;28;20223;-65
2023/01/05 09:00:05;;;;;;;24.40;19.53;;;;;;;9.14;61.00;95386.28;5006899;28;20238;-67
2023/01/05 09:02:31;;;;;;;24.33;20.47;;;;;;;9.23;61.11;95384.66;4994195;28;20242;-66
2023/01/05 09:04:56;;;;;;;23.90;20.07;;;;;;;9.21;61.04;95379.53;5005921;28;20188;-67
2023/01/05 09:07:22;;;;;;;23.63;20.37;;;;;;;9.13;61.13;95371.50;5014044;28;20265;-65
2023/01/05 09:09:47;;;;;;;28.37;21.53;;;;;;;9.15;61.00;95369.56;5005997;28;20235;-66
2023/01/05 09:12:13;;;;;;;26.43;21.20;;;;;;;9.30;60.81;95356.88;5010651;28;20230;-68
2023/01/05 09:14:38;;;;;;;23.90;20.17;;;;;;;9.41;60.31;95348.91;5009899;28;20191;-69
2023/01/05 09:17:03;;;;;;;23.87;19.77;;;;;;;9.44;60.42;95346.03;5010051;28;20192;-66
2023/01/05 09:19:29;;;;;;;24.60;19.90;;;;;;;9.60;59.80;95336.78;5008754;28;20226;-66
2023/01/05 09:21:55;;;;;;;26.07;20.80;;;;;;;9.69;59.25;95322.81;5002150;28;20220;-66
2023/01/05 09:24:20;;;;;;;23.70;19.50;;;;;;;9.71;59.03;95313.00;4984057;28;20226;-66
2023/01/05 09:26:46;;;;;;;24.17;19.20;;;;;;;9.89;58.21;95305.22;4988151;28;20192;-65
2023/01/05 09:29:12;;;;;;;26.10;22.40;;;;;;;9.92;58.01;95305.78;5008269;28;20186;-66
2023/01/05 09:31:39;;;;;;;30.33;22.17;;;;;;;9.98;58.12;95299.13;5006542;28;20412;-67
2023/01/05 09:34:05;;;;;;;22.57;19.57;;;;;;;10.03;57.36;95294.28;5013176;28;20229;-66
2023/01/05 09:36:31;;;;;;;25.67;20.83;;;;;;;10.11;57.30;95293.59;5005876;28;20219;-66
2023/01/05 09:38:57;;;;;;;24.07;20.33;;;;;;;10.21;56.44;95289.16;5008876;28;20221;-67
2023/01/05 09:41:31;;;;;;;22.67;19.07;;;;;;;10.25;56.44;95295.75;5012841;28;20183;-68
2023/01/05 09:44:29;;;;;;;21.33;17.40;;;;;;;10.28;55.73;95289.41;5007477;28;20224;-67
2023/01/05 09:47:01;;;;;;;22.53;18.40;;;;;;;10.18;56.20;95271.00;5003339;28;20222;-65
2023/01/05 09:49:28;;;;;;;21.37;17.80;;;;;;;10.42;55.29;95270.53;5009889;28;20230;-65
2023/01/05 09:51:59;;;;;;;19.87;17.13;;;;;;;10.39;55.33;95260.31;5006768;28;20249;-65
2023/01/05 09:54:27;;;;;;;22.97;17.07;;;;;;;10.35;55.15;95256.34;5023377;28;20314;-66
2023/01/05 09:56:54;;;;;;;19.77;16.30;;;;;;;10.40;54.54;95255.88;5007887;28;20266;-65
2023/01/05 09:59:25;;;;;;;20.67;17.90;;;;;;;10.59;54.60;95253.19;5019280;28;20180;-65
2023/01/05 10:01:53;;;;;;;20.07;17.53;;;;;;;10.72;54.71;95239.66;5002113;28;20227;-65
2023/01/05 10:04:23;;;;;;;24.00;18.17;;;;;;;10.77;54.25;95232.16;5004621;28;20271;-66
2023/01/05 10:06:57;;;;;;;24.30;18.57;;;;;;;10.87;53.80;95230.31;4987945;28;20274;-65
2023/01/05 10:09:29;;;;;;;23.47;18.40;;;;;;;10.84;53.54;95232.44;4985375;28;20232;-66
2023/01/05 10:15:20;;;;;;;21.53;18.47;;;;;;;10.99;53.19;95229.13;5006010;28;20229;-65
2023/01/05 10:17:46;;;;;;;20.40;18.20;;;;;;;10.75;54.08;95228.88;5009172;28;20633;-64
2023/01/05 10:20:21;;;;;;;22.73;19.17;;;;;;;10.95;53.33;95219.88;5017928;28;20179;-65
2023/01/05 10:23:20;;;;;;;22.00;18.10;;;;;;;11.03;53.33;95221.75;5002230;28;20222;-65
2023/01/05 10:25:58;;;;;;;22.30;18.47;;;;;;;10.96;53.22;95223.31;5022088;28;20269;-65
2023/01/05 10:28:36;;;;;;;24.30;18.63;;;;;;;10.83;53.62;95218.44;5004052;28;20586;-65
2023/01/05 10:31:13;;;;;;;24.27;19.80;;;;;;;10.99;53.35;95205.47;5018317;28;20245;-66
2023/01/05 10:33:56;;;;;;;25.87;19.83;;;;;;;10.96;53.44;95203.13;5007888;28;20245;-64
2023/01/05 10:36:25;;;;;;;23.07;18.63;;;;;;;11.11;52.88;95206.06;4998199;28;20259;-64
2023/01/05 10:39:17;;;;;;;24.73;18.97;;;;;;;11.24;52.82;95200.41;5011562;28;20541;-65
2023/01/05 10:41:57;;;;;;;21.93;18.47;;;;;;;11.34;52.53;95202.97;5014082;28;20182;-66
2023/01/05 10:44:29;;;;;;;24.37;19.50;;;;;;;11.45;52.04;95193.03;5016994;28;20183;-66
2023/01/05 10:46:55;;;;;;;21.23;18.63;;;;;;;11.51;52.10;95183.69;5020724;28;20227;-66
2023/01/05 10:49:26;;;;;;;22.50;18.77;;;;;;;11.50;52.07;95179.41;5005396;28;20218;-65
2023/01/05 10:51:54;;;;;;;21.60;18.77;;;;;;;11.70;51.38;95169.50;4997299;28;20279;-65
2023/01/05 10:54:36;;;;;;;23.13;18.37;;;;;;;11.88;51.10;95169.47;4978689;28;20233;-65
2023/01/05 10:57:29;;;;;;;21.43;19.10;;;;;;;11.97;51.27;95163.25;4995564;28;20223;-65
2023/01/05 11:00:02;;;;;;;23.17;18.53;;;;;;;12.07;50.52;95160.50;4987852;28;20219;-66
2023/01/05 11:02:30;;;;;;;24.67;20.17;;;;;;;12.22;49.94;95156.31;4996689;28;20260;-66
2023/01/05 11:05:06;;;;;;;22.77;19.17;;;;;;;12.37;49.29;95156.50;5010322;28;20223;-66
2023/01/05 11:07:32;;;;;;;23.27;18.57;;;;;;;12.49;48.79;95151.78;5012220;28;20234;-67
2023/01/05 11:09:57;;;;;;;22.63;18.83;;;;;;;12.62;48.57;95151.34;5002320;28;20232;-67
2023/01/05 11:12:24;;;;;;;24.77;19.93;;;;;;;12.44;48.69;95154.09;4986056;28;20233;-66
2023/01/05 11:14:53;;;;;;;21.53;19.20;;;;;;;12.47;48.82;95149.31;5003630;28;20206;-67
2023/01/05 11:17:22;;;;;;;21.33;18.37;;;;;;;12.62;48.51;95135.53;5000301;28;20218;-67
2023/01/05 11:19:54;;;;;;;22.73;18.87;;;;;;;12.72;48.40;95141.44;5011929;28;20293;-67
2023/01/05 11:22:47;;;;;;;22.30;18.63;;;;;;;12.77;47.68;95147.88;4993520;28;20227;-67
2023/01/05 11:25:24;;;;;;;22.47;18.13;;;;;;;12.90;47.62;95134.22;5000125;28;20221;-67
2023/01/05 11:28:13;;;;;;;22.17;17.58;;;;;;;13.08;47.29;95134.09;5005078;28;20277;-67
2023/01/05 11:31:00;;;;;;;21.90;17.87;;;;;;;13.34;46.58;95136.59;5016015;28;20343;-66
2023/01/05 11:33:29;;;;;;;23.73;18.87;;;;;;;13.34;46.28;95135.75;4990379;28;20228;-67
2023/01/05 11:35:57;;;;;;;21.30;18.20;;;;;;;13.47;46.15;95128.16;4990342;28;20222;-67
2023/01/05 11:38:27;;;;;;;24.67;19.20;;;;;;;13.62;45.35;95112.47;5015945;28;20213;-66
2023/01/05 11:40:55;;;;;;;24.80;16.93;;;;;;;13.70;45.29;95119.56;5023341;28;20216;-66
2023/01/05 11:43:23;;;;;;;19.20;17.00;;;;;;;13.65;45.32;95123.50;5023095;28;20218;-66
2023/01/05 11:45:56;;;;;;;22.13;17.83;;;;;;;13.74;44.87;95120.84;5012284;28;20287;-67
2023/01/05 11:48:26;;;;;;;23.20;16.63;;;;;;;13.82;44.32;95116.38;5009600;28;20330;-67
2023/01/05 11:50:55;;;;;;;19.85;16.83;;;;;;;13.90;44.23;95115.56;5010715;28;20233;-66
2023/01/05 11:53:41;;;;;;;23.83;17.50;;;;;;;13.81;44.44;95113.91;5011053;28;20193;-66
2023/01/05 11:56:23;;;;;;;22.00;17.77;;;;;;;13.90;44.46;95100.50;5010985;28;20241;-67
2023/01/05 11:58:53;;;;;;;28.47;17.37;;;;;;;13.09;45.59;95108.50;5009035;28;20226;-66
2023/01/05 12:01:48;;;;;;;20.40;16.80;;;;;;;12.95;46.38;95104.72;4989221;28;20226;-65
2023/01/05 12:04:13;;;;;;;20.23;16.83;;;;;;;13.62;45.38;95096.59;5015530;28;20215;-66
2023/01/05 12:06:49;;;;;;;19.88;16.17;;;;;;;14.00;44.09;95095.00;5006243;28;20218;-67
2023/01/05 12:09:18;;;;;;;17.83;15.93;;;;;;;13.47;44.08;95104.38;5007153;28;20230;-64
2023/01/05 12:11:59;;;;;;;20.47;15.67;;;;;;;13.39;45.10;95093.81;5011204;28;20207;-65